Time;durP1;ratioP1;P1;durP2;ratioP2;P2;SDS_P1;SDS_P2;PMS_P1;PMS_P2;Temp;Humidity;BMP_temperature;BMP_pressure;BME280_temperature;BME280_humidity;BME280_pressure;Samples;Min_cycle;Max_cycle;Signal;HPM_P1;HPM_P2
2023/05/22 00:00:07;;;;;;;8.82;5.65;;;14.90;99.90;;;;;;5114223;28;20039;-55
2023/05/22 00:02:41;;;;;;;10.23;5.55;;;14.80;99.90;;;;;;5113403;28;20422;-56
2023/05/22 00:05:10;;;;;;;9.18;5.82;;;14.80;99.90;;;;;;5103110;28;20115;-55
2023/05/22 00:07:38;;;;;;;11.40;5.65;;;14.90;99.90;;;;;;5104837;28;20063;-54
2023/05/22 00:10:06;;;;;;;10.93;5.78;;;14.80;99.90;;;;;;5099720;28;20044;-54
2023/05/22 00:12:33;;;;;;;;;;;14.80;99.90;;;;;;5107354;28;20046;-56
2023/05/22 00:15:00;;;;;;;10.30;5.90;;;14.80;99.90;;;;;;5113362;28;19934;-54
2023/05/22 00:17:29;;;;;;;8.73;5.78;;;14.70;99.90;;;;;;5109567;28;20058;-54
2023/05/22 00:20:03;;;;;;;8.18;5.80;;;14.70;99.90;;;;;;5113767;28;20046;-54
2023/05/22 00:22:30;;;;;;;12.65;6.32;;;14.60;99.90;;;;;;5113029;28;20063;-53
2023/05/22 00:24:57;;;;;;;9.48;5.57;;;14.50;99.90;;;;;;5113663;28;20523;-54
2023/05/22 00:27:24;;;;;;;9.32;6.05;;;14.40;99.90;;;;;;5108965;28;20039;-56
2023/05/22 00:29:51;;;;;;;13.02;6.00;;;14.30;99.90;;;;;;5105367;28;20048;-57
2023/05/22 00:32:17;;;;;;;9.10;6.15;;;14.30;99.90;;;;;;5101895;28;20131;-57
2023/05/22 00:34:44;;;;;;;8.02;5.55;;;14.40;99.90;;;;;;5091886;28;20054;-54
2023/05/22 00:37:11;;;;;;;11.70;6.15;;;14.40;99.90;;;;;;5091745;28;20043;-53
2023/05/22 00:39:38;;;;;;;10.35;5.97;;;14.40;99.90;;;;;;5101337;28;20032;-55
2023/05/22 00:42:05;;;;;;;10.38;5.88;;;14.30;99.90;;;;;;5086348;28;20074;-53
2023/05/22 00:44:31;;;;;;;8.48;5.90;;;14.40;99.90;;;;;;5107475;28;20575;-54
2023/05/22 00:46:58;;;;;;;9.55;6.38;;;14.40;99.90;;;;;;5112777;28;20047;-54
2023/05/22 00:49:25;;;;;;;8.43;5.82;;;14.30;99.90;;;;;;5093619;28;20047;-54
2023/05/22 00:51:52;;;;;;;8.88;5.78;;;14.20;99.90;;;;;;5103437;28;20044;-53
2023/05/22 00:54:19;;;;;;;9.77;5.70;;;14.10;99.90;;;;;;5089435;28;20067;-56
2023/05/22 00:56:47;;;;;;;7.05;5.60;;;14.00;99.90;;;;;;5091284;28;20130;-54
2023/05/22 00:59:15;;;;;;;7.32;5.47;;;14.10;99.90;;;;;;5093548;28;20052;-57
2023/05/22 01:01:43;;;;;;;11.57;5.45;;;14.10;99.90;;;;;;5094418;28;20048;-54
2023/05/22 01:04:11;;;;;;;9.13;5.57;;;14.10;99.90;;;;;;5093092;28;20044;-56
2023/05/22 01:06:40;;;;;;;12.80;6.20;;;14.10;99.90;;;;;;5111778;28;20401;-54
2023/05/22 01:09:07;;;;;;;12.10;5.53;;;14.10;99.90;;;;;;5104402;28;20114;-54
2023/05/22 01:11:45;;;;;;;8.32;6.25;;;14.10;99.90;;;;;;5113165;28;20054;-54
2023/05/22 01:14:27;;;;;;;8.85;6.25;;;14.00;99.90;;;;;;5084048;28;20066;-55
2023/05/22 01:17:15;;;;;;;9.90;5.57;;;14.00;99.90;;;;;;5100260;28;20043;-55
2023/05/22 01:19:52;;;;;;;;;;;13.90;99.90;;;;;;5101423;28;20528;-56
2023/05/22 01:22:42;;;;;;;11.55;6.00;;;13.80;99.90;;;;;;5111871;28;19951;-55
2023/05/22 01:25:46;;;;;;;8.40;5.65;;;13.70;99.90;;;;;;5109976;28;20500;-54
2023/05/22 01:28:51;;;;;;;10.52;6.18;;;13.70;99.90;;;;;;5087549;28;20036;-55
2023/05/22 01:31:20;;;;;;;8.68;6.10;;;13.60;99.90;;;;;;5083996;28;20044;-54
2023/05/22 01:33:51;;;;;;;10.98;6.25;;;13.50;99.90;;;;;;5083116;28;20388;-54
2023/05/22 01:36:21;;;;;;;9.77;6.03;;;13.50;99.90;;;;;;5094233;28;20101;-55
2023/05/22 01:38:48;;;;;;;8.95;6.35;;;13.40;99.90;;;;;;5088044;28;20113;-54
2023/05/22 01:41:16;;;;;;;9.70;6.22;;;13.40;99.90;;;;;;5082461;28;20040;-54
2023/05/22 01:43:44;;;;;;;;;;;13.30;99.90;;;;;;5089614;28;20048;-55
2023/05/22 01:46:11;;;;;;;12.30;6.20;;;13.30;99.90;;;;;;5112925;28;20341;-54
2023/05/22 01:48:37;;;;;;;10.90;5.68;;;13.30;99.90;;;;;;5091434;28;20685;-54
2023/05/22 01:51:18;;;;;;;;;;;13.30;99.90;;;;;;5085803;28;20427;-57
2023/05/22 01:54:13;;;;;;;8.77;5.63;;;13.30;99.90;;;;;;5093067;28;19919;-55
2023/05/22 01:56:55;;;;;;;9.15;5.90;;;13.30;99.90;;;;;;5103038;28;20077;-54
2023/05/22 01:59:38;;;;;;;10.07;6.47;;;13.30;99.90;;;;;;5087823;28;20059;-57
2023/05/22 02:02:09;;;;;;;12.95;6.55;;;13.20;99.90;;;;;;5109397;28;20035;-56
2023/05/22 02:04:39;;;;;;;9.90;5.90;;;13.20;99.90;;;;;;5111085;28;20036;-53
2023/05/22 02:07:09;;;;;;;11.27;6.50;;;13.10;99.90;;;;;;5082671;28;20407;-53
2023/05/22 02:09:39;;;;;;;12.57;6.55;;;13.10;99.90;;;;;;5094528;28;20405;-54
2023/05/22 02:12:07;;;;;;;10.10;6.38;;;13.00;99.90;;;;;;5084168;28;20591;-54
2023/05/22 02:14:35;;;;;;;10.75;6.32;;;13.00;99.90;;;;;;5092589;28;20051;-54
2023/05/22 02:17:03;;;;;;;10.07;6.60;;;12.90;99.90;;;;;;5092359;28;20058;-55
2023/05/22 02:19:36;;;;;;;11.45;6.03;;;12.90;99.90;;;;;;5092366;28;20496;-57
2023/05/22 02:22:03;;;;;;;12.70;6.45;;;12.90;99.90;;;;;;5090528;28;20043;-54
2023/05/22 02:24:31;;;;;;;9.02;6.18;;;12.90;99.90;;;;;;5091562;28;20510;-54
2023/05/22 02:26:57;;;;;;;16.08;6.55;;;12.90;99.90;;;;;;5092687;28;20396;-54
2023/05/22 02:29:24;;;;;;;14.55;6.70;;;12.80;99.90;;;;;;5092205;28;20093;-54
2023/05/22 02:31:53;;;;;;;9.35;5.90;;;12.70;99.90;;;;;;5110152;28;20052;-57
2023/05/22 02:34:20;;;;;;;8.13;5.78;;;12.70;99.90;;;;;;5111218;28;20052;-54
2023/05/22 02:36:46;;;;;;;9.75;5.93;;;12.70;99.90;;;;;;5092413;28;20523;-54
2023/05/22 02:39:14;;;;;;;8.68;5.78;;;12.60;99.90;;;;;;5092446;28;20485;-54
2023/05/22 02:41:41;;;;;;;8.90;6.10;;;12.60;99.90;;;;;;5092388;28;20043;-55
2023/05/22 02:44:07;;;;;;;10.68;5.50;;;12.60;99.90;;;;;;5087964;28;20064;-55
2023/05/22 02:46:34;;;;;;;7.03;5.10;;;12.60;99.90;;;;;;5086748;28;20128;-56
2023/05/22 02:49:02;;;;;;;9.98;5.90;;;12.50;99.90;;;;;;5093033;28;20039;-56
2023/05/22 02:51:29;;;;;;;8.27;5.43;;;12.50;99.90;;;;;;5091949;28;20039;-57
2023/05/22 02:53:56;;;;;;;12.70;5.07;;;12.40;99.90;;;;;;5092212;28;20400;-56
2023/05/22 02:56:23;;;;;;;9.05;5.72;;;12.40;99.90;;;;;;5085442;28;20059;-55
2023/05/22 02:58:50;;;;;;;9.48;6.20;;;12.30;99.90;;;;;;5081258;28;20044;-54
2023/05/22 03:01:17;;;;;;;8.25;4.90;;;12.30;99.90;;;;;;5091267;28;20040;-54
2023/05/22 03:03:44;;;;;;;10.00;5.82;;;12.30;99.90;;;;;;5091307;28;20484;-55
2023/05/22 03:06:11;;;;;;;10.43;6.70;;;12.30;99.90;;;;;;5086719;28;20040;-54
2023/05/22 03:08:42;;;;;;;10.20;6.60;;;12.40;99.90;;;;;;5087829;28;20040;-54
2023/05/22 03:11:09;;;;;;;9.63;5.97;;;12.50;99.90;;;;;;5110681;28;20393;-54
2023/05/22 03:13:36;;;;;;;10.93;6.45;;;12.40;99.90;;;;;;5113185;28;20047;-54
2023/05/22 03:16:02;;;;;;;9.52;6.38;;;12.40;99.90;;;;;;5096528;28;20050;-55
2023/05/22 03:18:30;;;;;;;10.55;6.00;;;12.40;99.90;;;;;;5094829;28;20465;-54
2023/05/22 03:20:57;;;;;;;9.30;5.55;;;12.30;99.90;;;;;;5107817;28;20036;-54
2023/05/22 03:23:24;;;;;;;11.50;6.28;;;12.30;99.90;;;;;;5111799;28;20441;-56
2023/05/22 03:25:51;;;;;;;10.75;7.05;;;12.20;99.90;;;;;;5103974;28;20058;-53
2023/05/22 03:28:20;;;;;;;10.32;6.70;;;12.20;99.90;;;;;;5096614;28;20644;-55
2023/05/22 03:30:47;;;;;;;10.38;6.43;;;12.20;99.90;;;;;;5093243;28;20035;-54
2023/05/22 03:33:21;;;;;;;12.07;7.07;;;12.20;99.90;;;;;;5129272;27;20454;-55
2023/05/22 03:35:48;;;;;;;12.10;6.97;;;12.20;99.90;;;;;;5109813;28;20492;-54
2023/05/22 03:38:15;;;;;;;;;;;12.20;99.90;;;;;;5103151;28;20048;-54
2023/05/22 03:40:42;;;;;;;9.00;6.65;;;12.20;99.90;;;;;;5072685;28;19966;-53
2023/05/22 03:43:09;;;;;;;9.15;6.65;;;12.10;99.90;;;;;;5087124;28;20048;-54
2023/05/22 03:45:37;;;;;;;12.50;7.07;;;12.10;99.90;;;;;;5087586;28;20468;-54
2023/05/22 03:48:04;;;;;;;10.18;6.50;;;12.10;99.90;;;;;;5123900;27;20143;-56
2023/05/22 03:50:30;;;;;;;14.05;7.53;;;12.10;99.90;;;;;;5096230;28;20050;-54
2023/05/22 03:52:57;;;;;;;12.95;7.35;;;12.00;99.90;;;;;;5121529;27;20051;-55
2023/05/22 03:55:25;;;;;;;11.52;6.88;;;12.00;99.90;;;;;;5101543;28;20040;-54
2023/05/22 03:57:52;;;;;;;10.90;7.25;;;12.10;99.90;;;;;;5108784;28;20039;-54
2023/05/22 04:00:19;;;;;;;15.10;7.55;;;12.00;99.90;;;;;;5095361;28;20031;-56
2023/05/22 04:02:46;;;;;;;13.23;7.80;;;12.00;99.90;;;;;;5094405;28;20031;-54
2023/05/22 04:05:13;;;;;;;12.25;7.40;;;12.10;99.90;;;;;;5091862;28;20136;-54
2023/05/22 04:07:40;;;;;;;15.85;7.32;;;12.00;99.90;;;;;;5090257;28;20131;-55
2023/05/22 04:10:07;;;;;;;13.20;7.10;;;12.10;99.90;;;;;;5114712;28;20046;-54
2023/05/22 04:12:34;;;;;;;16.05;7.55;;;12.00;99.90;;;;;;5107221;28;20510;-56
2023/05/22 04:15:01;;;;;;;14.45;7.95;;;12.10;99.90;;;;;;5085235;28;20066;-55
2023/05/22 04:17:32;;;;;;;13.82;7.32;;;12.10;99.90;;;;;;5089045;28;20036;-54
2023/05/22 04:19:59;;;;;;;16.40;7.53;;;12.00;99.90;;;;;;5086919;28;20134;-57
2023/05/22 04:22:26;;;;;;;15.10;7.45;;;12.10;99.90;;;;;;5094649;28;20048;-57
2023/05/22 04:24:53;;;;;;;11.55;7.28;;;12.10;99.90;;;;;;5113756;28;20088;-55
2023/05/22 04:27:21;;;;;;;11.30;7.32;;;12.10;99.90;;;;;;5094231;28;20031;-56
2023/05/22 04:29:51;;;;;;;11.45;6.82;;;12.20;99.90;;;;;;5096273;28;20415;-55
2023/05/22 04:32:20;;;;;;;10.63;7.15;;;12.20;99.90;;;;;;5073856;28;20062;-54
2023/05/22 04:34:51;;;;;;;10.60;7.47;;;12.20;99.90;;;;;;5083731;28;20435;-53
2023/05/22 04:37:19;;;;;;;10.73;7.13;;;12.30;99.90;;;;;;5095010;28;20040;-57
2023/05/22 04:39:46;;;;;;;11.85;6.80;;;12.30;99.90;;;;;;5093269;28;20036;-53
2023/05/22 04:42:13;;;;;;;14.43;7.35;;;12.40;99.90;;;;;;5073101;28;20040;-53
2023/05/22 04:44:41;;;;;;;11.73;6.78;;;12.40;99.90;;;;;;5102400;28;20040;-54
2023/05/22 04:47:13;;;;;;;12.43;7.22;;;12.30;99.90;;;;;;5111727;28;20047;-56
2023/05/22 04:49:42;;;;;;;13.75;7.13;;;12.40;99.90;;;;;;5113909;28;20496;-56
2023/05/22 04:52:10;;;;;;;12.05;7.32;;;12.40;99.90;;;;;;5073931;28;20130;-57
2023/05/22 04:54:37;;;;;;;13.98;7.72;;;12.50;99.90;;;;;;5100654;28;20154;-54
2023/05/22 04:57:04;;;;;;;;;;;12.50;99.90;;;;;;5077980;28;20039;-57
2023/05/22 04:59:36;;;;;;;12.80;7.43;;;12.50;99.90;;;;;;5094535;28;19924;-56
2023/05/22 05:02:04;;;;;;;12.13;6.95;;;12.60;99.90;;;;;;5075865;28;20054;-55
2023/05/22 05:04:31;;;;;;;12.55;7.57;;;12.60;99.90;;;;;;5092970;28;20071;-56
2023/05/22 05:06:58;;;;;;;15.32;6.90;;;12.70;99.90;;;;;;5092873;28;20500;-54
2023/05/22 05:09:25;;;;;;;12.00;7.78;;;12.80;99.90;;;;;;5087775;28;20126;-54
2023/05/22 05:11:53;;;;;;;17.42;7.53;;;12.80;99.90;;;;;;5105056;28;20048;-55
2023/05/22 05:14:20;;;;;;;13.35;7.85;;;12.90;99.90;;;;;;5093143;28;20044;-55
2023/05/22 05:16:47;;;;;;;10.77;7.53;;;13.00;99.90;;;;;;5113341;28;20126;-57
2023/05/22 05:19:15;;;;;;;11.85;7.22;;;13.10;99.90;;;;;;5083471;28;20131;-56
2023/05/22 05:21:42;;;;;;;10.95;6.70;;;13.20;99.90;;;;;;5094882;28;20519;-54
2023/05/22 05:24:09;;;;;;;13.75;6.53;;;13.20;99.90;;;;;;5091448;28;20051;-54
2023/05/22 05:26:36;;;;;;;12.35;7.32;;;13.40;99.90;;;;;;5093771;28;20069;-55
2023/05/22 05:29:03;;;;;;;9.50;6.85;;;13.40;99.90;;;;;;5092263;28;20043;-55
2023/05/22 05:31:37;;;;;;;9.63;6.78;;;13.40;99.90;;;;;;5089931;28;20518;-54
2023/05/22 05:34:12;;;;;;;12.30;7.35;;;13.50;99.90;;;;;;5059273;28;20139;-54
2023/05/22 05:36:56;;;;;;;12.20;7.47;;;13.60;99.90;;;;;;5079759;28;20423;-55
2023/05/22 05:39:22;;;;;;;11.05;6.93;;;13.70;99.90;;;;;;5084454;28;20388;-54
2023/05/22 05:41:50;;;;;;;11.57;7.00;;;13.80;99.90;;;;;;5094300;28;20735;-54
2023/05/22 05:44:17;;;;;;;11.50;6.63;;;13.90;99.90;;;;;;5091654;28;20047;-56
2023/05/22 05:46:45;;;;;;;11.60;6.95;;;14.00;99.90;;;;;;5085827;28;20040;-53
2023/05/22 05:49:14;;;;;;;12.85;7.22;;;14.10;99.90;;;;;;5093108;28;20048;-55
2023/05/22 05:51:42;;;;;;;13.10;6.90;;;14.10;99.90;;;;;;5090675;28;20051;-54
2023/05/22 05:54:10;;;;;;;9.07;6.38;;;14.30;99.90;;;;;;5092558;28;20085;-53
2023/05/22 05:56:37;;;;;;;12.27;7.13;;;14.40;99.90;;;;;;5093100;28;20563;-54
2023/05/22 05:59:04;;;;;;;10.23;6.45;;;14.50;99.90;;;;;;5084180;28;20067;-55
2023/05/22 06:01:38;;;;;;;10.60;6.45;;;14.60;99.90;;;;;;5102917;28;20043;-55
2023/05/22 06:04:11;;;;;;;10.98;6.25;;;14.70;99.90;;;;;;5091195;28;20532;-54
2023/05/22 06:06:39;;;;;;;15.43;6.80;;;14.70;99.90;;;;;;5093021;28;20048;-54
2023/05/22 06:09:08;;;;;;;15.73;6.65;;;14.90;99.90;;;;;;5111589;28;20285;-53
2023/05/22 06:11:55;;;;;;;11.65;6.63;;;14.90;99.90;;;;;;5106883;28;20048;-57
2023/05/22 06:14:23;;;;;;;14.88;6.30;;;15.00;99.90;;;;;;5088908;28;20056;-53
2023/05/22 06:16:50;;;;;;;13.57;6.88;;;15.10;99.90;;;;;;5105039;28;20059;-54
2023/05/22 06:19:17;;;;;;;21.95;6.60;;;15.20;99.90;;;;;;5093642;28;20077;-54
2023/05/22 06:21:45;;;;;;;15.68;6.25;;;15.40;99.90;;;;;;5090315;28;20508;-55
2023/05/22 06:24:11;;;;;;;11.45;6.95;;;15.50;99.90;;;;;;5093441;28;20084;-55
2023/05/22 06:26:38;;;;;;;15.02;6.97;;;15.70;99.90;;;;;;5086723;28;20043;-54
2023/05/22 06:29:05;;;;;;;16.77;7.28;;;15.70;99.90;;;;;;5110752;28;20067;-54
2023/05/22 06:31:36;;;;;;;15.95;7.38;;;15.80;99.90;;;;;;5089458;28;20078;-55
2023/05/22 06:34:04;;;;;;;19.65;6.07;;;15.90;99.90;;;;;;5092827;28;20047;-57
2023/05/22 06:36:33;;;;;;;;;;;16.10;99.90;;;;;;5091758;28;20187;-54
2023/05/22 06:39:01;;;;;;;12.50;6.20;;;16.20;99.90;;;;;;5093572;28;19930;-55
2023/05/22 06:41:50;;;;;;;12.73;6.63;;;16.30;99.90;;;;;;5107100;28;20130;-55
2023/05/22 06:44:17;;;;;;;15.35;6.22;;;16.40;99.90;;;;;;5087927;28;20394;-57
2023/05/22 06:46:46;;;;;;;10.02;6.05;;;16.50;99.90;;;;;;5086030;28;20474;-54
2023/05/22 06:49:19;;;;;;;14.40;6.80;;;16.70;99.90;;;;;;5093016;28;20131;-56
2023/05/22 06:51:50;;;;;;;10.38;6.25;;;16.80;99.90;;;;;;5092410;28;20043;-55
2023/05/22 06:54:18;;;;;;;10.90;6.05;;;16.80;99.90;;;;;;5104677;28;20036;-54
2023/05/22 06:56:47;;;;;;;19.10;6.30;;;16.90;99.90;;;;;;5090395;28;20080;-55
2023/05/22 06:59:15;;;;;;;15.65;6.22;;;17.10;99.90;;;;;;5082835;28;20523;-55
2023/05/22 07:02:02;;;;;;;9.32;5.97;;;17.20;99.90;;;;;;5081519;28;20059;-57
2023/05/22 07:04:53;;;;;;;14.38;6.47;;;17.40;99.90;;;;;;5091827;28;20039;-56
2023/05/22 07:07:30;;;;;;;13.63;6.70;;;17.70;99.90;;;;;;5091489;28;20043;-54
2023/05/22 07:09:57;;;;;;;21.90;6.20;;;17.80;99.90;;;;;;5091781;28;20043;-56
2023/05/22 07:12:26;;;;;;;9.88;6.00;;;18.00;99.90;;;;;;5092712;28;20047;-55
2023/05/22 07:14:54;;;;;;;9.60;6.32;;;18.10;99.90;;;;;;5091561;28;20039;-56
2023/05/22 07:17:23;;;;;;;9.93;6.47;;;18.40;99.90;;;;;;5091982;28;20080;-55
2023/05/22 07:19:50;;;;;;;;;;;18.60;99.90;;;;;;5090256;28;20059;-55
2023/05/22 07:22:17;;;;;;;9.77;6.18;;;18.80;99.90;;;;;;5098474;28;19919;-54
2023/05/22 07:24:46;;;;;;;13.05;5.55;;;18.90;99.90;;;;;;5083014;28;20044;-56
2023/05/22 07:27:14;;;;;;;12.45;5.40;;;19.00;99.90;;;;;;5091870;28;20116;-58
2023/05/22 07:29:41;;;;;;;9.05;5.75;;;19.20;99.90;;;;;;5088129;28;20044;-55
2023/05/22 07:32:08;;;;;;;10.90;5.85;;;19.40;99.90;;;;;;5089595;28;20563;-56
2023/05/22 07:34:36;;;;;;;12.32;5.57;;;19.50;99.90;;;;;;5091274;28;20389;-56
2023/05/22 07:37:07;;;;;;;11.23;6.43;;;19.60;99.90;;;;;;5082338;28;20040;-54
2023/05/22 07:39:34;;;;;;;7.38;4.88;;;19.70;99.90;;;;;;5091405;28;20492;-55
2023/05/22 07:42:01;;;;;;;8.82;5.55;;;19.90;99.60;;;;;;5092081;28;20495;-54
2023/05/22 07:44:30;;;;;;;8.43;5.75;;;20.00;98.70;;;;;;5085985;28;20032;-53
2023/05/22 07:46:58;;;;;;;10.07;5.32;;;20.10;98.40;;;;;;5080856;28;20060;-54
2023/05/22 07:49:27;;;;;;;7.55;5.78;;;20.20;98.40;;;;;;5091107;28;20036;-54
2023/05/22 07:51:54;;;;;;;9.48;5.45;;;20.40;98.00;;;;;;5109482;28;20040;-55
2023/05/22 07:54:24;;;;;;;7.70;5.03;;;20.60;97.30;;;;;;5082795;28;20575;-54
2023/05/22 07:56:51;;;;;;;8.10;5.22;;;20.70;97.60;;;;;;5105122;28;20142;-55
2023/05/22 07:59:20;;;;;;;9.73;5.75;;;20.80;96.90;;;;;;5095513;28;20073;-54
2023/05/22 08:01:49;;;;;;;9.43;5.60;;;20.80;97.10;;;;;;5093851;28;20035;-56
2023/05/22 08:04:16;;;;;;;9.73;6.00;;;21.00;96.90;;;;;;5113473;28;20066;-57
2023/05/22 08:06:43;;;;;;;12.70;6.68;;;20.90;96.00;;;;;;5113984;28;20492;-54
2023/05/22 08:09:10;;;;;;;9.02;6.10;;;21.10;96.10;;;;;;5105161;28;20044;-55
2023/05/22 08:11:40;;;;;;;;;;;21.30;96.00;;;;;;5114455;28;20541;-54
2023/05/22 08:14:07;;;;;;;10.00;6.20;;;21.30;95.30;;;;;;5112833;28;19919;-54
2023/05/22 08:16:34;;;;;;;;;;;21.30;96.10;;;;;;5110496;28;20071;-56
2023/05/22 08:19:02;;;;;;;8.73;5.75;;;21.40;95.70;;;;;;5106050;28;19920;-55
2023/05/22 08:21:29;;;;;;;;;;;21.60;95.10;;;;;;5113431;28;20423;-54
2023/05/22 08:23:55;;;;;;;15.35;6.25;;;21.80;95.70;;;;;;5113110;28;20410;-54
2023/05/22 08:26:24;;;;;;;7.63;5.57;;;22.00;94.80;;;;;;5114090;28;20040;-54
2023/05/22 08:28:51;;;;;;;9.30;6.00;;;22.10;94.20;;;;;;5111442;28;20050;-55
2023/05/22 08:31:18;;;;;;;7.22;5.70;;;22.20;94.40;;;;;;5104563;28;20481;-54
2023/05/22 08:33:45;;;;;;;7.38;5.72;;;22.20;93.70;;;;;;5106171;28;20508;-54
2023/05/22 08:36:12;;;;;;;9.57;5.47;;;22.20;93.20;;;;;;5102584;28;20539;-54
2023/05/22 08:38:39;;;;;;;10.60;5.28;;;22.40;93.60;;;;;;5112961;28;20051;-54
2023/05/22 08:41:07;;;;;;;9.60;5.95;;;22.60;92.70;;;;;;5112661;28;20039;-55
2023/05/22 08:43:34;;;;;;;8.65;5.43;;;22.80;92.20;;;;;;5096210;28;20040;-56
2023/05/22 08:46:03;;;;;;;;;;;23.00;91.60;;;;;;5086842;28;20043;-54
2023/05/22 08:48:30;;;;;;;6.63;5.32;;;23.00;90.70;;;;;;5113624;28;20347;-55
2023/05/22 08:51:02;;;;;;;13.02;6.00;;;23.00;90.50;;;;;;5102531;28;20048;-56
2023/05/22 08:53:41;;;;;;;8.93;5.43;;;23.00;90.80;;;;;;5113414;28;20114;-57
2023/05/22 08:56:09;;;;;;;11.77;5.53;;;23.20;89.50;;;;;;5111706;28;20480;-54
2023/05/22 08:58:37;;;;;;;9.02;5.93;;;23.30;88.40;;;;;;5083846;28;20055;-55
2023/05/22 09:01:06;;;;;;;7.13;4.80;;;23.40;90.10;;;;;;5107639;28;20047;-56
2023/05/22 09:03:35;;;;;;;8.88;5.20;;;23.60;87.50;;;;;;5094488;28;20517;-57
2023/05/22 09:06:03;;;;;;;6.93;5.38;;;23.70;84.80;;;;;;5108215;28;20101;-54
2023/05/22 09:08:30;;;;;;;9.07;5.50;;;23.80;87.70;;;;;;5108902;28;20036;-55
2023/05/22 09:10:56;;;;;;;10.10;5.22;;;24.00;85.00;;;;;;5091927;28;20047;-55
2023/05/22 09:13:28;;;;;;;8.85;5.00;;;24.00;82.80;;;;;;5105526;28;20463;-57
2023/05/22 09:16:08;;;;;;;6.90;4.90;;;24.10;81.90;;;;;;5093938;28;20126;-54
2023/05/22 09:18:36;;;;;;;9.30;5.45;;;24.30;82.10;;;;;;5112789;28;20047;-56
2023/05/22 09:21:04;;;;;;;6.10;5.18;;;24.50;81.90;;;;;;5112106;28;20487;-54
2023/05/22 09:23:49;;;;;;;8.43;5.03;;;24.60;80.90;;;;;;5105226;28;20039;-54
2023/05/22 09:26:16;;;;;;;9.10;5.22;;;24.80;80.80;;;;;;5097023;28;20154;-54
2023/05/22 09:28:43;;;;;;;;;;;24.80;78.20;;;;;;5104535;28;20047;-56
2023/05/22 09:31:10;;;;;;;6.72;5.07;;;24.90;80.40;;;;;;5111957;28;19920;-54
2023/05/22 09:33:37;;;;;;;6.93;5.18;;;24.80;77.40;;;;;;5090193;28;20040;-55
2023/05/22 09:36:08;;;;;;;7.35;5.43;;;25.00;78.30;;;;;;5104697;28;20046;-55
2023/05/22 09:38:35;;;;;;;7.10;5.22;;;25.10;77.30;;;;;;5111249;28;20036;-54
2023/05/22 09:41:02;;;;;;;8.20;5.15;;;25.10;83.80;;;;;;5112532;28;20058;-57
2023/05/22 09:43:28;;;;;;;6.80;4.93;;;25.10;80.10;;;;;;5102457;28;20040;-58
2023/05/22 09:45:56;;;;;;;7.18;4.57;;;25.10;75.10;;;;;;5110069;28;20046;-55
2023/05/22 09:48:24;;;;;;;7.13;4.80;;;25.30;73.10;;;;;;5109622;28;20736;-54
2023/05/22 09:50:53;;;;;;;6.80;4.22;;;25.40;73.40;;;;;;5111948;28;20515;-54
2023/05/22 09:53:26;;;;;;;6.82;4.28;;;25.60;71.20;;;;;;5107251;28;20044;-54
2023/05/22 09:55:56;;;;;;;4.63;4.22;;;25.60;69.20;;;;;;5112637;28;20044;-55
2023/05/22 09:58:26;;;;;;;5.97;4.20;;;25.70;69.10;;;;;;5100824;28;20039;-54
2023/05/22 10:00:55;;;;;;;4.95;4.45;;;25.60;70.00;;;;;;5111911;28;20050;-56
2023/05/22 10:03:23;;;;;;;7.55;4.70;;;25.70;68.10;;;;;;5098832;28;20054;-54
2023/05/22 10:05:53;;;;;;;5.25;4.38;;;25.70;69.10;;;;;;5111401;28;20043;-55
2023/05/22 10:08:31;;;;;;;6.57;4.57;;;25.90;67.90;;;;;;5110891;28;20036;-55
2023/05/22 10:10:58;;;;;;;8.73;4.43;;;26.00;69.10;;;;;;5110861;28;20044;-54
2023/05/22 10:13:26;;;;;;;12.23;4.53;;;26.00;67.80;;;;;;5109615;28;20511;-54
2023/05/22 10:15:53;;;;;;;8.27;4.70;;;26.10;67.10;;;;;;5103390;28;20110;-54
2023/05/22 10:18:20;;;;;;;5.47;4.70;;;26.20;69.30;;;;;;5110845;28;20084;-55
2023/05/22 10:20:48;;;;;;;5.88;4.43;;;26.20;66.60;;;;;;5111436;28;20031;-55
2023/05/22 10:23:16;;;;;;;7.05;5.03;;;26.20;66.40;;;;;;5090572;28;20044;-54
2023/05/22 10:25:44;;;;;;;7.10;5.07;;;26.20;66.90;;;;;;5085497;28;20123;-54
2023/05/22 10:28:18;;;;;;;10.02;5.25;;;26.40;69.90;;;;;;5111078;28;20387;-55
2023/05/22 10:31:20;;;;;;;6.95;5.55;;;26.60;72.50;;;;;;5111809;28;20051;-56
2023/05/22 10:34:11;;;;;;;7.10;5.43;;;26.70;72.20;;;;;;5100567;28;20073;-55
2023/05/22 10:36:44;;;;;;;8.05;5.32;;;26.60;70.30;;;;;;5102104;28;20039;-58
2023/05/22 10:39:40;;;;;;;7.15;5.32;;;26.50;71.90;;;;;;5111616;28;20032;-57
2023/05/22 10:42:13;;;;;;;5.60;4.70;;;26.40;71.50;;;;;;5110600;28;20047;-54
2023/05/22 10:44:40;;;;;;;10.73;5.50;;;26.50;69.70;;;;;;5102825;28;20039;-55
2023/05/22 10:47:12;;;;;;;9.73;5.90;;;26.40;72.10;;;;;;5107134;28;20039;-55
2023/05/22 10:49:43;;;;;;;9.25;5.65;;;26.30;74.30;;;;;;5084870;28;20040;-55
2023/05/22 10:52:10;;;;;;;7.45;5.55;;;26.30;75.40;;;;;;5110485;28;20040;-56
2023/05/22 10:54:39;;;;;;;6.78;5.43;;;26.40;72.40;;;;;;5105443;28;20382;-58
2023/05/22 10:57:17;;;;;;;6.97;5.45;;;26.40;72.60;;;;;;5107029;28;21815;-55
2023/05/22 10:59:47;;;;;;;9.52;5.47;;;26.40;74.70;;;;;;5103215;28;20043;-55
2023/05/22 11:02:24;;;;;;;7.47;5.68;;;26.40;73.30;;;;;;5110838;28;20522;-57
2023/05/22 11:04:51;;;;;;;7.40;5.55;;;26.60;72.60;;;;;;5107713;28;20124;-54
2023/05/22 11:07:18;;;;;;;;;;;26.70;73.10;;;;;;5097580;28;20060;-56
2023/05/22 11:09:47;;;;;;;8.48;5.45;;;26.80;67.50;;;;;;5102434;28;19931;-57
2023/05/22 11:12:23;;;;;;;7.13;5.32;;;26.80;69.80;;;;;;5110657;28;20044;-57
2023/05/22 11:14:57;;;;;;;9.57;5.93;;;26.90;68.60;;;;;;5101123;28;20032;-56
2023/05/22 11:17:29;;;;;;;7.72;5.10;;;27.20;70.10;;;;;;5102362;28;20058;-57
2023/05/22 11:20:01;;;;;;;6.78;5.10;;;27.40;69.60;;;;;;5109000;28;20040;-54
2023/05/22 11:22:40;;;;;;;10.00;5.70;;;27.40;68.60;;;;;;5105833;28;20415;-54
2023/05/22 11:25:09;;;;;;;8.48;5.65;;;27.20;68.10;;;;;;5100075;28;20035;-58
2023/05/22 11:27:39;;;;;;;9.18;5.78;;;27.30;67.60;;;;;;5102240;28;20404;-55
2023/05/22 11:30:08;;;;;;;9.68;5.70;;;27.40;66.50;;;;;;5109897;28;20508;-57
2023/05/22 11:32:36;;;;;;;7.43;5.15;;;27.50;65.50;;;;;;5103960;28;20055;-56
2023/05/22 11:35:04;;;;;;;6.13;5.00;;;27.70;67.00;;;;;;5108450;28;20073;-57
2023/05/22 11:37:31;;;;;;;8.00;5.05;;;27.80;64.70;;;;;;5109916;28;20044;-57
2023/05/22 11:40:04;;;;;;;5.43;4.93;;;28.10;64.70;;;;;;5114249;28;20046;-54
2023/05/22 11:42:31;;;;;;;12.02;6.03;;;28.10;63.30;;;;;;5113857;28;20048;-57
2023/05/22 11:44:59;;;;;;;6.57;5.18;;;28.20;64.20;;;;;;5113943;28;20032;-55
2023/05/22 11:47:29;;;;;;;9.75;5.32;;;28.20;64.10;;;;;;5108454;28;20051;-57
2023/05/22 11:49:57;;;;;;;6.55;5.60;;;28.50;64.40;;;;;;5114391;28;20038;-55
2023/05/22 11:52:24;;;;;;;7.63;4.68;;;28.60;64.20;;;;;;5114300;28;20055;-55
2023/05/22 11:54:51;;;;;;;6.55;5.40;;;28.80;62.50;;;;;;5114008;28;20131;-58
2023/05/22 11:57:19;;;;;;;8.07;5.53;;;28.70;65.60;;;;;;5111180;28;20466;-55
2023/05/22 11:59:47;;;;;;;5.80;4.85;;;28.40;66.10;;;;;;5099240;28;20042;-57
2023/05/22 12:02:18;;;;;;;13.00;5.50;;;28.10;67.90;;;;;;5083808;28;20048;-58
2023/05/22 12:04:45;;;;;;;6.30;5.30;;;28.00;67.30;;;;;;5110009;28;20024;-57
2023/05/22 12:07:12;;;;;;;9.95;5.45;;;28.00;70.20;;;;;;5114157;28;20038;-55
2023/05/22 12:09:39;;;;;;;;;;;28.40;65.00;;;;;;5107357;28;20544;-56
2023/05/22 12:12:10;;;;;;;5.78;5.18;;;28.80;63.10;;;;;;5113367;28;19924;-56
2023/05/22 12:14:37;;;;;;;7.63;5.63;;;28.80;64.20;;;;;;5113333;28;20491;-57
2023/05/22 12:17:05;;;;;;;6.57;5.50;;;28.90;64.40;;;;;;5099697;28;20540;-57
2023/05/22 12:19:31;;;;;;;8.35;5.65;;;28.70;70.60;;;;;;5114254;28;20088;-56
2023/05/22 12:21:58;;;;;;;;;;;28.40;67.20;;;;;;5094368;28;20050;-56
2023/05/22 12:24:25;;;;;;;5.53;4.82;;;28.30;68.70;;;;;;5111533;28;19919;-56
2023/05/22 12:26:52;;;;;;;;;;;28.50;65.90;;;;;;5103401;28;20040;-55
2023/05/22 12:29:22;;;;;;;7.63;5.68;;;28.40;64.80;;;;;;5109694;28;19980;-58
2023/05/22 12:31:50;;;;;;;6.78;5.45;;;28.60;65.10;;;;;;5104198;28;20055;-56
2023/05/22 12:34:20;;;;;;;7.45;6.40;;;28.40;70.00;;;;;;5112874;28;20537;-57
2023/05/22 12:36:47;;;;;;;6.85;5.63;;;28.20;69.10;;;;;;5112517;28;20040;-58
2023/05/22 12:39:17;;;;;;;;;;;28.20;67.90;;;;;;5099416;28;20059;-56
2023/05/22 12:41:44;;;;;;;11.23;5.80;;;28.30;74.30;;;;;;5105968;28;20012;-55
2023/05/22 12:44:13;;;;;;;6.93;5.65;;;28.40;67.50;;;;;;5112946;28;20059;-56
2023/05/22 12:46:40;;;;;;;7.18;5.07;;;28.70;65.60;;;;;;5108674;28;20039;-58
2023/05/22 12:49:07;;;;;;;9.35;5.72;;;28.90;63.50;;;;;;5105743;28;20114;-57
2023/05/22 12:51:34;;;;;;;7.75;5.93;;;29.00;66.20;;;;;;5112001;28;20043;-55
2023/05/22 12:54:01;;;;;;;;;;;28.90;66.30;;;;;;5113545;28;20039;-54
2023/05/22 12:56:29;;;;;;;6.60;5.60;;;28.70;64.10;;;;;;5109905;28;19919;-54
2023/05/22 12:58:57;;;;;;;6.85;5.70;;;28.50;65.70;;;;;;5107496;28;20050;-57